createdAt,value
2018-03-08T00:00:59.315Z,1.39
2018-03-08T00:03:27.905Z,1.42
2018-03-08T00:05:56.418Z,1.46
2018-03-08T00:08:24.817Z,1.44
2018-03-08T00:10:53.135Z,1.46
2018-03-08T00:13:21.656Z,1.50
2018-03-08T00:15:50.230Z,1.58
2018-03-08T00:18:17.825Z,1.57
2018-03-08T00:20:46.503Z,1.56
2018-03-08T00:23:14.103Z,1.56
2018-03-08T00:25:42.542Z,1.56
2018-03-08T00:28:11.103Z,1.74
2018-03-08T00:30:39.712Z,1.67
2018-03-08T00:33:07.387Z,1.61
2018-03-08T00:35:34.997Z,1.67
2018-03-08T00:38:03.398Z,1.57
2018-03-08T00:40:31.082Z,1.58
2018-03-08T00:42:58.690Z,1.59
2018-03-08T00:45:27.430Z,1.62
2018-03-08T00:47:55.061Z,1.63
2018-03-08T00:50:22.752Z,1.69
2018-03-08T00:52:51.241Z,1.67
2018-03-08T00:55:18.843Z,1.70
2018-03-08T00:57:46.537Z,1.69
2018-03-08T01:00:14.131Z,1.66
2018-03-08T01:02:41.975Z,1.57
2018-03-08T01:05:10.570Z,1.66
2018-03-08T01:07:38.242Z,1.59
2018-03-08T01:10:05.886Z,1.51
2018-03-08T01:12:34.386Z,1.48
2018-03-08T01:15:02.151Z,1.36
2018-03-08T01:17:30.572Z,1.26
2018-03-08T01:19:58.265Z,1.25
2018-03-08T01:22:26.771Z,1.18
2018-03-08T01:24:54.450Z,1.14
2018-03-08T01:27:22.087Z,1.16
2018-03-08T01:29:49.766Z,1.17
2018-03-08T01:32:17.430Z,1.18
2018-03-08T01:34:45.030Z,1.15
2018-03-08T01:37:12.731Z,1.12
2018-03-08T01:39:41.318Z,1.00
2018-03-08T01:42:09.003Z,0.93
2018-03-08T01:44:37.318Z,0.83
2018-03-08T01:47:05.015Z,0.82
2018-03-08T01:49:32.608Z,0.83
2018-03-08T01:52:11.906Z,0.83
2018-03-08T01:54:39.508Z,0.81
2018-03-08T01:57:07.306Z,0.85
2018-03-08T01:59:35.136Z,0.83
2018-03-08T02:02:02.759Z,0.91
2018-03-08T02:04:30.463Z,0.92
2018-03-08T02:06:58.226Z,0.94
2018-03-08T02:09:25.825Z,0.92
2018-03-08T02:11:53.434Z,0.90
2018-03-08T02:14:21.114Z,0.90
2018-03-08T02:16:48.805Z,0.92
2018-03-08T02:19:16.415Z,0.95
2018-03-08T02:21:44.094Z,0.97
2018-03-08T02:24:11.693Z,0.98
2018-03-08T02:26:39.293Z,1.00
2018-03-08T02:29:06.986Z,1.01
2018-03-08T02:31:34.590Z,1.01
2018-03-08T02:34:02.273Z,1.04
2018-03-08T02:36:29.879Z,1.03
2018-03-08T02:38:57.474Z,1.08
2018-03-08T02:41:25.073Z,1.15
2018-03-08T02:43:52.673Z,1.15
2018-03-08T02:46:20.292Z,1.09
2018-03-08T02:48:47.982Z,1.05
2018-03-08T02:51:15.754Z,1.07
2018-03-08T02:53:43.443Z,1.04
2018-03-08T02:56:11.147Z,1.06
2018-03-08T02:58:38.822Z,1.10
2018-03-08T03:01:06.508Z,1.06
2018-03-08T03:03:34.368Z,1.09
2018-03-08T03:06:01.974Z,1.10
2018-03-08T03:08:29.670Z,1.10
2018-03-08T03:10:57.351Z,1.08
2018-03-08T03:13:24.951Z,1.09
2018-03-08T03:15:52.551Z,0.99
2018-03-08T03:18:20.154Z,0.97
2018-03-08T03:20:48.008Z,0.94
2018-03-08T03:23:15.631Z,0.92
2018-03-08T03:25:43.315Z,0.90
2018-03-08T03:28:10.918Z,0.98
2018-03-08T03:30:38.712Z,1.02
2018-03-08T03:33:06.397Z,1.02
2018-03-08T03:35:34.083Z,0.98
2018-03-08T03:38:01.758Z,1.02
2018-03-08T03:40:29.445Z,0.96
2018-03-08T03:42:57.055Z,0.96
2018-03-08T03:45:24.649Z,1.01
2018-03-08T03:47:52.247Z,1.01
2018-03-08T03:50:20.478Z,1.00
2018-03-08T03:52:48.077Z,1.07
2018-03-08T03:55:15.684Z,1.17
2018-03-08T03:57:43.278Z,1.08
2018-03-08T04:00:10.877Z,1.02
2018-03-08T04:02:38.484Z,1.07
2018-03-08T04:05:06.076Z,1.09
2018-03-08T04:07:33.685Z,1.11
2018-03-08T04:10:01.369Z,1.10
2018-03-08T04:12:28.965Z,1.04
2018-03-08T04:14:56.591Z,1.06
2018-03-08T04:17:24.359Z,1.07
2018-03-08T04:19:52.223Z,1.19
2018-03-08T04:22:19.959Z,1.17
2018-03-08T04:24:47.680Z,1.28
2018-03-08T04:27:15.294Z,1.23
2018-03-08T04:29:42.976Z,1.25
2018-03-08T04:32:10.574Z,1.33
2018-03-08T04:34:38.274Z,1.36
2018-03-08T04:37:05.964Z,1.39
2018-03-08T04:39:33.644Z,1.46
2018-03-08T04:42:01.333Z,1.49
2018-03-08T04:44:28.956Z,1.51
2018-03-08T04:46:56.691Z,1.48
2018-03-08T04:49:24.387Z,1.51
2018-03-08T04:51:52.064Z,1.53
2018-03-08T04:54:19.786Z,1.57
2018-03-08T04:56:47.450Z,1.54
2018-03-08T04:59:15.319Z,1.62
2018-03-08T05:01:43.107Z,1.65
2018-03-08T05:04:10.782Z,1.68
2018-03-08T05:06:38.471Z,1.63
2018-03-08T05:09:06.169Z,1.72
2018-03-08T05:11:33.859Z,1.77
2018-03-08T05:14:01.538Z,1.85
2018-03-08T05:16:29.268Z,1.88
2018-03-08T05:18:56.960Z,1.92
2018-03-08T05:21:25.298Z,1.93
2018-03-08T05:23:53.005Z,1.93
2018-03-08T05:26:20.690Z,1.97
2018-03-08T05:28:48.391Z,1.98
2018-03-08T05:31:16.188Z,2.01
2018-03-08T05:33:43.870Z,2.03
2018-03-08T05:36:11.550Z,2.06
2018-03-08T05:38:39.238Z,2.09
2018-03-08T05:41:06.936Z,2.10
2018-03-08T05:43:34.624Z,2.12
2018-03-08T05:46:02.312Z,2.12
2018-03-08T05:48:30.007Z,2.14
2018-03-08T05:50:57.690Z,2.13
2018-03-08T05:53:25.289Z,2.17
2018-03-08T05:55:52.895Z,2.18
2018-03-08T05:58:20.580Z,2.18
2018-03-08T06:00:48.224Z,2.25
2018-03-08T06:03:15.876Z,2.33
2018-03-08T06:05:43.557Z,2.39
2018-03-08T06:08:11.161Z,2.43
2018-03-08T06:10:38.895Z,2.50
2018-03-08T06:13:06.761Z,2.55
2018-03-08T06:15:34.504Z,2.61
2018-03-08T06:18:02.318Z,2.59
2018-03-08T06:20:30.480Z,2.64
2018-03-08T06:22:58.124Z,2.68
2018-03-08T06:25:25.676Z,2.73
2018-03-08T06:27:53.226Z,2.77
2018-03-08T06:30:20.782Z,2.82
2018-03-08T06:32:48.330Z,2.84
2018-03-08T06:35:15.886Z,2.82
2018-03-08T06:37:43.467Z,2.98
2018-03-08T06:40:11.017Z,3.07
2018-03-08T06:42:38.614Z,3.15
2018-03-08T06:45:06.166Z,3.21
2018-03-08T06:47:33.710Z,3.24
2018-03-08T06:50:01.268Z,3.34
2018-03-08T06:52:28.821Z,3.37
2018-03-08T06:54:56.372Z,3.47
2018-03-08T06:57:23.926Z,3.54
2018-03-08T06:59:51.482Z,3.67
2018-03-08T07:02:19.045Z,3.68
2018-03-08T07:04:46.595Z,3.74
2018-03-08T07:07:14.141Z,3.75
2018-03-08T07:09:41.688Z,3.94
2018-03-08T07:12:09.235Z,4.09
2018-03-08T07:14:36.789Z,4.16
2018-03-08T07:17:04.351Z,4.34
2018-03-08T07:19:31.931Z,4.44
2018-03-08T07:21:59.483Z,4.45
2018-03-08T07:24:27.064Z,4.52
2018-03-08T07:26:54.609Z,4.57
2018-03-08T07:29:22.156Z,4.71
2018-03-08T07:31:49.716Z,4.76
2018-03-08T07:34:17.274Z,4.86
2018-03-08T07:36:44.827Z,4.86
2018-03-08T07:39:12.372Z,4.83
2018-03-08T07:41:39.927Z,4.96
2018-03-08T07:44:07.477Z,5.16
2018-03-08T07:46:35.033Z,5.21
2018-03-08T07:49:02.620Z,5.33
2018-03-08T07:51:30.176Z,5.38
2018-03-08T07:53:57.724Z,5.43
2018-03-08T07:56:25.279Z,5.57
2018-03-08T07:58:52.838Z,5.66
2018-03-08T08:01:20.419Z,5.74
2018-03-08T08:03:47.967Z,5.68
2018-03-08T08:06:27.489Z,5.70
2018-03-08T08:09:09.991Z,5.62
2018-03-08T08:11:37.580Z,5.75
2018-03-08T08:14:05.135Z,5.75
2018-03-08T08:16:32.692Z,5.76
2018-03-08T08:19:00.261Z,5.69
2018-03-08T08:21:27.817Z,5.75
2018-03-08T08:23:55.373Z,5.54
2018-03-08T08:26:22.924Z,5.47
2018-03-08T08:28:50.476Z,5.39
2018-03-08T08:31:18.027Z,5.49
2018-03-08T08:33:45.578Z,5.36
2018-03-08T08:36:13.128Z,5.46
2018-03-08T08:38:40.680Z,5.41
2018-03-08T08:41:08.234Z,5.43
2018-03-08T08:43:35.808Z,5.32
2018-03-08T08:46:03.361Z,5.43
2018-03-08T08:48:30.917Z,5.45
2018-03-08T08:50:58.510Z,5.30
2018-03-08T08:53:26.042Z,5.36
2018-03-08T08:55:53.641Z,5.39
2018-03-08T08:58:21.195Z,5.28
2018-03-08T09:00:48.750Z,5.33
2018-03-08T09:03:16.300Z,5.24
2018-03-08T09:05:43.846Z,5.24
2018-03-08T09:08:11.400Z,5.28
2018-03-08T09:10:38.950Z,5.31
2018-03-08T09:13:06.504Z,5.32
2018-03-08T09:15:34.056Z,5.42
2018-03-08T09:18:01.603Z,5.40
2018-03-08T09:20:29.159Z,5.46
2018-03-08T09:22:56.744Z,5.47
2018-03-08T09:25:24.290Z,5.46
2018-03-08T09:27:51.877Z,5.33
2018-03-08T09:30:19.901Z,5.39
2018-03-08T09:32:47.456Z,5.39
2018-03-08T09:35:15.012Z,5.46
2018-03-08T09:37:42.562Z,5.42
2018-03-08T09:40:10.112Z,5.27
2018-03-08T09:42:37.661Z,5.17
2018-03-08T09:45:05.216Z,5.06
2018-03-08T09:47:32.819Z,5.19
2018-03-08T09:50:00.375Z,5.17
2018-03-08T09:52:27.930Z,5.16
2018-03-08T09:54:55.480Z,5.17
2018-03-08T09:57:23.040Z,5.19
2018-03-08T09:59:50.594Z,5.13
2018-03-08T10:02:18.152Z,5.04
2018-03-08T10:04:45.704Z,5.04
2018-03-08T10:07:13.252Z,5.04
2018-03-08T10:09:40.805Z,4.95
2018-03-08T10:12:08.355Z,5.00
2018-03-08T10:14:35.903Z,4.96
2018-03-08T10:17:03.492Z,4.98
2018-03-08T10:19:31.040Z,4.92
2018-03-08T10:21:58.642Z,4.89
2018-03-08T10:24:26.194Z,4.76
2018-03-08T10:26:53.747Z,4.82
2018-03-08T10:29:21.308Z,4.83
2018-03-08T10:31:48.866Z,4.81
2018-03-08T10:34:16.422Z,4.76
2018-03-08T10:36:43.984Z,4.75
2018-03-08T10:41:45.321Z,4.87
2018-03-08T10:44:06.731Z,4.83
2018-03-08T10:46:34.278Z,4.89
2018-03-08T10:51:29.347Z,5.02
2018-03-08T10:53:56.890Z,5.07
2018-03-08T10:56:24.484Z,5.13
2018-03-08T10:58:52.041Z,5.28
2018-03-08T11:01:25.556Z,5.31
2018-03-08T11:03:55.035Z,5.48
2018-03-08T11:06:28.576Z,5.69
2018-03-08T11:08:56.134Z,5.82
2018-03-08T11:11:23.691Z,6.07
2018-03-08T11:13:51.934Z,6.21
2018-03-08T11:16:19.522Z,6.34
2018-03-08T11:18:47.072Z,6.33
2018-03-08T11:21:14.685Z,6.44
2018-03-08T11:23:42.239Z,6.41
2018-03-08T11:26:09.789Z,6.51
2018-03-08T11:28:37.350Z,6.48
2018-03-08T11:31:04.911Z,6.68
2018-03-08T11:33:32.460Z,6.64
2018-03-08T11:36:00.013Z,6.61
2018-03-08T11:38:27.558Z,6.57
2018-03-08T11:40:55.114Z,6.54
2018-03-08T11:43:22.669Z,6.43
2018-03-08T11:45:50.227Z,6.55
2018-03-08T11:48:17.778Z,6.74
2018-03-08T11:50:45.336Z,6.83
2018-03-08T11:53:12.889Z,7.06
2018-03-08T11:55:40.514Z,7.61
2018-03-08T11:58:08.021Z,8.08
2018-03-08T12:00:35.579Z,8.31
2018-03-08T12:03:03.134Z,8.63
2018-03-08T12:05:30.679Z,8.51
2018-03-08T12:07:58.232Z,8.72
2018-03-08T12:10:25.787Z,8.74
2018-03-08T12:12:53.350Z,8.75
2018-03-08T12:15:21.695Z,9.03
2018-03-08T12:17:49.243Z,9.12
2018-03-08T12:20:16.824Z,9.22
2018-03-08T12:22:44.407Z,9.00
2018-03-08T12:25:11.960Z,8.83
2018-03-08T12:27:39.520Z,8.72
2018-03-08T12:30:07.083Z,8.88
2018-03-08T12:32:34.637Z,8.83
2018-03-08T12:35:03.026Z,9.10
2018-03-08T12:37:30.624Z,8.88
2018-03-08T12:39:58.177Z,8.84
2018-03-08T12:42:25.728Z,8.90
2018-03-08T12:44:53.275Z,8.86
2018-03-08T12:47:20.828Z,8.97
2018-03-08T12:49:48.375Z,8.97
2018-03-08T12:52:15.928Z,9.11
2018-03-08T12:54:43.519Z,9.32
2018-03-08T12:57:11.067Z,9.32
2018-03-08T12:59:38.656Z,9.67
2018-03-08T13:02:06.210Z,9.70
2018-03-08T13:04:33.796Z,9.75
2018-03-08T13:07:01.385Z,9.53
2018-03-08T13:09:28.930Z,9.94
2018-03-08T13:11:56.482Z,9.82
2018-03-08T13:14:24.046Z,9.61
2018-03-08T13:16:51.632Z,10.02
2018-03-08T13:19:19.193Z,10.37
2018-03-08T13:21:46.743Z,10.53
2018-03-08T13:24:14.308Z,10.50
2018-03-08T13:26:41.903Z,10.29
2018-03-08T13:29:09.463Z,10.30
2018-03-08T13:31:37.040Z,10.06
2018-03-08T13:34:04.602Z,10.03
2018-03-08T13:36:32.195Z,10.27
2018-03-08T13:38:59.749Z,10.49
2018-03-08T13:41:27.338Z,10.51
2018-03-08T13:43:54.893Z,10.44
2018-03-08T13:46:22.488Z,10.48
2018-03-08T13:48:50.059Z,10.55
2018-03-08T13:51:17.617Z,10.33
2018-03-08T13:53:45.187Z,10.04
2018-03-08T13:56:12.733Z,9.62
2018-03-08T13:58:40.317Z,9.59
2018-03-08T14:01:07.858Z,9.72
2018-03-08T14:03:35.435Z,10.03
2018-03-08T14:06:02.988Z,10.10
2018-03-08T14:08:30.618Z,10.14
2018-03-08T14:10:58.159Z,10.20
2018-03-08T14:13:25.752Z,10.38
2018-03-08T14:15:53.305Z,10.38
2018-03-08T14:18:20.895Z,10.28
2018-03-08T14:20:48.451Z,10.30
2018-03-08T14:23:15.998Z,10.26
2018-03-08T14:25:43.560Z,10.21
2018-03-08T14:28:11.112Z,10.30
2018-03-08T14:30:38.660Z,10.26
2018-03-08T14:33:06.220Z,10.24
2018-03-08T14:35:33.771Z,10.16
2018-03-08T14:38:01.311Z,10.08
2018-03-08T14:40:28.867Z,10.18
2018-03-08T14:42:56.421Z,10.12
2018-03-08T14:45:23.973Z,9.90
2018-03-08T14:47:51.542Z,9.95
2018-03-08T14:50:20.429Z,9.74
2018-03-08T14:52:47.972Z,9.74
2018-03-08T14:55:15.523Z,9.73
2018-03-08T14:57:43.124Z,9.96
2018-03-08T15:00:10.678Z,10.17
2018-03-08T15:02:38.280Z,10.28
2018-03-08T15:05:05.823Z,10.31
2018-03-08T15:07:33.369Z,10.43
2018-03-08T15:10:00.919Z,10.35
2018-03-08T15:12:28.472Z,10.14
2018-03-08T15:14:56.016Z,10.08
2018-03-08T15:17:23.560Z,9.83
2018-03-08T15:19:51.115Z,9.76
2018-03-08T15:22:18.666Z,9.81
2018-03-08T15:24:46.209Z,9.91
2018-03-08T15:27:13.759Z,10.07
2018-03-08T15:29:41.327Z,10.12
2018-03-08T15:32:08.875Z,10.20
2018-03-08T15:34:36.420Z,9.95
2018-03-08T15:37:03.970Z,9.97
2018-03-08T15:39:31.516Z,9.91
2018-03-08T15:41:59.059Z,9.70
2018-03-08T15:44:26.600Z,9.57
2018-03-08T15:46:54.144Z,9.52
2018-03-08T15:49:21.734Z,9.40
2018-03-08T15:51:49.275Z,9.33
2018-03-08T15:54:16.890Z,9.18
2018-03-08T15:56:44.435Z,9.01
2018-03-08T15:59:11.996Z,8.56
2018-03-08T16:01:39.610Z,8.33
2018-03-08T16:04:07.197Z,8.18
2018-03-08T16:06:46.563Z,7.98
2018-03-08T16:12:12.842Z,7.61
2018-03-08T16:14:40.376Z,7.54
2018-03-08T16:17:07.919Z,7.46
2018-03-08T16:19:35.468Z,7.18
2018-03-08T16:22:03.047Z,7.10
2018-03-08T16:24:30.590Z,6.90
2018-03-08T16:26:58.169Z,6.88
2018-03-08T16:29:25.809Z,6.71
2018-03-08T16:31:53.335Z,6.57
2018-03-08T16:34:20.915Z,6.48
2018-03-08T16:36:48.455Z,6.41
2018-03-08T16:39:15.998Z,6.29
2018-03-08T16:41:43.589Z,6.22
2018-03-08T16:44:11.132Z,6.14
2018-03-08T16:46:38.714Z,6.14
2018-03-08T16:49:06.299Z,6.04
2018-03-08T16:51:33.847Z,5.86
2018-03-08T16:54:01.458Z,5.75
2018-03-08T16:56:29.027Z,5.70
2018-03-08T16:58:56.624Z,5.67
2018-03-08T17:01:24.167Z,5.70
2018-03-08T17:03:51.960Z,5.67
2018-03-08T17:06:19.500Z,5.67
2018-03-08T17:08:47.159Z,5.83
2018-03-08T17:11:14.702Z,5.77
2018-03-08T17:13:42.284Z,5.86
2018-03-08T17:16:09.822Z,5.81
2018-03-08T17:18:37.369Z,5.79
2018-03-08T17:21:04.932Z,5.77
2018-03-08T17:23:32.468Z,5.88
2018-03-08T17:26:00.008Z,5.72
2018-03-08T17:28:27.578Z,5.70
2018-03-08T17:30:55.162Z,5.72
2018-03-08T17:33:22.703Z,5.71
2018-03-08T17:35:50.289Z,5.67
2018-03-08T17:38:17.833Z,5.65
2018-03-08T17:40:45.446Z,5.67
2018-03-08T17:43:13.774Z,5.66
2018-03-08T17:45:41.364Z,5.71
2018-03-08T17:48:08.917Z,5.68
2018-03-08T17:50:36.452Z,5.68
2018-03-08T17:53:03.989Z,5.60
2018-03-08T17:55:31.571Z,5.58
2018-03-08T17:57:59.151Z,5.57
2018-03-08T18:00:27.721Z,5.39
2018-03-08T18:02:55.276Z,5.37
2018-03-08T18:05:22.845Z,5.31
2018-03-08T18:07:50.379Z,5.32
2018-03-08T18:10:17.919Z,5.46
2018-03-08T18:12:45.858Z,5.44
2018-03-08T18:15:13.391Z,5.25
2018-03-08T18:17:40.931Z,5.23
2018-03-08T18:20:08.523Z,4.97
2018-03-08T18:22:36.071Z,4.87
2018-03-08T18:25:03.608Z,4.96
2018-03-08T18:27:31.259Z,4.86
2018-03-08T18:29:58.799Z,4.84
2018-03-08T18:32:26.350Z,4.81
2018-03-08T18:34:53.923Z,4.60
2018-03-08T18:37:21.471Z,4.53
2018-03-08T18:39:49.012Z,4.54
2018-03-08T18:42:16.550Z,4.50
2018-03-08T18:44:44.088Z,4.38
2018-03-08T18:47:11.623Z,4.37
2018-03-08T18:49:39.162Z,4.40
2018-03-08T18:52:06.703Z,4.38
2018-03-08T18:54:34.279Z,4.23
2018-03-08T18:57:01.815Z,4.23
2018-03-08T18:59:29.395Z,4.23
2018-03-08T19:01:56.934Z,4.15
2018-03-08T19:04:24.514Z,4.12
2018-03-08T19:06:52.128Z,4.09
2018-03-08T19:09:19.667Z,4.09
2018-03-08T19:11:47.257Z,4.09
2018-03-08T19:14:14.795Z,4.05
2018-03-08T19:16:42.342Z,4.09
2018-03-08T19:19:09.879Z,4.12
2018-03-08T19:21:37.418Z,4.09
2018-03-08T19:24:04.967Z,4.02
2018-03-08T19:26:32.517Z,4.05
2018-03-08T19:29:00.091Z,4.20
2018-03-08T19:31:28.614Z,4.11
2018-03-08T19:33:56.187Z,4.23
2018-03-08T19:36:23.728Z,4.16
2018-03-08T19:38:51.313Z,4.17
2018-03-08T19:41:18.902Z,4.29
2018-03-08T19:43:46.438Z,4.15
2018-03-08T19:46:13.989Z,4.23
2018-03-08T19:48:41.567Z,4.33
2018-03-08T19:51:09.102Z,4.19
2018-03-08T19:53:36.638Z,4.36
2018-03-08T19:56:04.186Z,4.24
2018-03-08T19:58:31.766Z,4.28
2018-03-08T20:00:59.310Z,4.29
2018-03-08T20:03:26.890Z,4.17
2018-03-08T20:05:54.428Z,4.30
2018-03-08T20:08:22.015Z,4.34
2018-03-08T20:10:49.559Z,4.27
2018-03-08T20:13:17.106Z,4.14
2018-03-08T20:15:44.643Z,4.16
2018-03-08T20:18:12.179Z,4.15
2018-03-08T20:20:40.705Z,4.15
2018-03-08T20:23:08.277Z,4.12
2018-03-08T20:25:35.869Z,4.16
2018-03-08T20:28:03.407Z,4.16
2018-03-08T20:30:30.947Z,4.15
2018-03-08T20:32:58.491Z,4.23
2018-03-08T20:35:26.050Z,4.29
2018-03-08T20:37:53.602Z,4.27
2018-03-08T20:40:21.138Z,4.27
2018-03-08T20:42:49.644Z,4.39
2018-03-08T20:45:17.184Z,4.35
2018-03-08T20:47:44.763Z,4.30
2018-03-08T20:50:12.302Z,4.42
2018-03-08T20:52:41.936Z,4.42
2018-03-08T20:55:09.470Z,4.59
2018-03-08T20:57:37.046Z,4.53
2018-03-08T21:00:04.604Z,4.61
2018-03-08T21:02:32.179Z,4.60
2018-03-08T21:04:59.715Z,4.61
2018-03-08T21:07:27.256Z,4.66
2018-03-08T21:09:55.090Z,4.65
2018-03-08T21:12:22.671Z,4.64
2018-03-08T21:14:50.256Z,4.64
2018-03-08T21:17:17.792Z,4.67
2018-03-08T21:19:45.370Z,4.57
2018-03-08T21:22:13.043Z,4.66
2018-03-08T21:24:40.618Z,4.62
2018-03-08T21:27:08.186Z,4.65
2018-03-08T21:29:35.720Z,4.58
2018-03-08T21:32:03.293Z,4.57
2018-03-08T21:34:30.875Z,4.65
2018-03-08T21:36:58.411Z,4.59
2018-03-08T21:39:26.878Z,4.62
2018-03-08T21:41:54.420Z,4.68
2018-03-08T21:44:21.954Z,4.65
2018-03-08T21:46:49.499Z,4.74
2018-03-08T21:49:17.031Z,4.81
2018-03-08T21:51:44.571Z,4.78
2018-03-08T21:54:12.136Z,4.79
2018-03-08T21:56:39.675Z,4.88
2018-03-08T21:59:07.251Z,4.91
2018-03-08T22:01:34.791Z,4.86
2018-03-08T22:04:02.387Z,4.85
2018-03-08T22:06:30.837Z,4.84
2018-03-08T22:08:58.386Z,4.85
2018-03-08T22:11:25.922Z,4.96
2018-03-08T22:13:53.491Z,4.95
2018-03-08T22:16:21.027Z,4.89
2018-03-08T22:18:48.564Z,4.98
2018-03-08T22:21:16.132Z,4.94
2018-03-08T22:23:43.667Z,4.87
2018-03-08T22:26:11.243Z,4.75
2018-03-08T22:28:38.787Z,4.80
2018-03-08T22:31:06.375Z,4.70
2018-03-08T22:33:33.911Z,4.54
2018-03-08T22:36:01.451Z,4.65
2018-03-08T22:38:28.999Z,4.58
2018-03-08T22:40:56.544Z,4.70
2018-03-08T22:43:24.078Z,4.70
2018-03-08T22:45:51.644Z,4.63
2018-03-08T22:48:19.188Z,4.54
2018-03-08T22:50:46.726Z,4.51
2018-03-08T22:53:14.266Z,4.38
2018-03-08T22:55:41.806Z,4.57
2018-03-08T22:58:09.345Z,4.49
2018-03-08T23:00:36.893Z,4.41
2018-03-08T23:03:10.140Z,4.55
2018-03-08T23:05:37.706Z,4.55
2018-03-08T23:08:11.305Z,4.52
2018-03-08T23:10:38.855Z,4.59
2018-03-08T23:13:06.398Z,4.56
2018-03-08T23:15:33.943Z,4.39
2018-03-08T23:18:02.362Z,4.35
2018-03-08T23:20:29.950Z,4.31
2018-03-08T23:22:57.490Z,4.20
2018-03-08T23:25:25.030Z,4.26
2018-03-08T23:31:09.608Z,4.24
2018-03-08T23:39:45.619Z,4.29
2018-03-08T23:45:22.873Z,4.50
2018-03-08T23:47:52.316Z,4.45
2018-03-08T23:56:07.810Z,4.46
2018-03-08T23:58:36.344Z,4.59
